sensor_id;sensor_type;location;lat;lon;timestamp;pressure;altitude;pressure_sealevel;temperature;humidity
12536;BME280;6334;48.696;2.114;2022-10-16T00:00:39;99423.94;;;15.91;100.00
12536;BME280;6334;48.696;2.114;2022-10-16T00:03:09;99410.48;;;15.99;100.00
12536;BME280;6334;48.696;2.114;2022-10-16T00:05:41;99423.52;;;15.97;100.00
12536;BME280;6334;48.696;2.114;2022-10-16T00:08:12;99439.02;;;15.84;100.00
12536;BME280;6334;48.696;2.114;2022-10-16T00:10:43;99451.31;;;15.91;100.00
12536;BME280;6334;48.696;2.114;2022-10-16T00:13:13;99446.91;;;15.88;100.00
12536;BME280;6334;48.696;2.114;2022-10-16T00:15:44;99436.93;;;15.86;100.00
12536;BME280;6334;48.696;2.114;2022-10-16T00:18:14;99442.19;;;15.92;100.00
12536;BME280;6334;48.696;2.114;2022-10-16T00:20:45;99451.41;;;15.91;100.00
12536;BME280;6334;48.696;2.114;2022-10-16T00:23:15;99445.19;;;15.77;100.00
12536;BME280;6334;48.696;2.114;2022-10-16T00:25:54;99441.84;;;15.84;100.00
12536;BME280;6334;48.696;2.114;2022-10-16T00:28:16;99449.28;;;15.75;100.00
12536;BME280;6334;48.696;2.114;2022-10-16T00:30:46;99452.79;;;15.91;100.00
12536;BME280;6334;48.696;2.114;2022-10-16T00:33:17;99452.13;;;15.85;100.00
12536;BME280;6334;48.696;2.114;2022-10-16T00:35:48;99407.17;;;15.64;100.00
12536;BME280;6334;48.696;2.114;2022-10-16T00:38:18;99440.69;;;15.81;100.00
12536;BME280;6334;48.696;2.114;2022-10-16T00:40:48;99452.91;;;15.69;100.00
12536;BME280;6334;48.696;2.114;2022-10-16T00:43:44;99457.25;;;15.75;100.00
12536;BME280;6334;48.696;2.114;2022-10-16T00:46:20;99451.00;;;15.72;100.00
12536;BME280;6334;48.696;2.114;2022-10-16T00:48:52;99447.45;;;15.80;100.00
12536;BME280;6334;48.696;2.114;2022-10-16T00:51:34;99449.58;;;15.73;100.00
12536;BME280;6334;48.696;2.114;2022-10-16T00:54:04;99447.98;;;15.82;100.00
12536;BME280;6334;48.696;2.114;2022-10-16T00:56:34;99447.31;;;15.91;100.00
12536;BME280;6334;48.696;2.114;2022-10-16T00:59:04;99445.85;;;15.75;100.00
12536;BME280;6334;48.696;2.114;2022-10-16T01:01:34;99450.23;;;15.55;100.00
12536;BME280;6334;48.696;2.114;2022-10-16T01:04:05;99451.42;;;15.74;100.00
12536;BME280;6334;48.696;2.114;2022-10-16T01:07:09;99454.02;;;15.58;100.00
12536;BME280;6334;48.696;2.114;2022-10-16T01:12:28;99459.42;;;15.55;100.00
12536;BME280;6334;48.696;2.114;2022-10-16T01:14:55;99463.52;;;15.65;100.00
12536;BME280;6334;48.696;2.114;2022-10-16T01:17:28;99463.05;;;15.53;100.00
12536;BME280;6334;48.696;2.114;2022-10-16T01:25:12;99469.16;;;15.72;100.00
12536;BME280;6334;48.696;2.114;2022-10-16T01:27:40;99470.66;;;15.52;100.00
12536;BME280;6334;48.696;2.114;2022-10-16T01:30:16;99469.42;;;15.47;100.00
12536;BME280;6334;48.696;2.114;2022-10-16T01:32:52;99458.28;;;15.63;100.00
12536;BME280;6334;48.696;2.114;2022-10-16T01:37:53;99461.38;;;15.48;100.00
12536;BME280;6334;48.696;2.114;2022-10-16T01:40:21;99458.34;;;15.50;100.00
12536;BME280;6334;48.696;2.114;2022-10-16T01:43:05;99476.91;;;15.56;100.00
12536;BME280;6334;48.696;2.114;2022-10-16T01:45:25;99470.47;;;15.80;100.00
12536;BME280;6334;48.696;2.114;2022-10-16T01:47:56;99470.96;;;15.64;100.00
12536;BME280;6334;48.696;2.114;2022-10-16T01:50:26;99472.95;;;15.67;100.00
12536;BME280;6334;48.696;2.114;2022-10-16T01:52:56;99470.60;;;15.57;100.00
12536;BME280;6334;48.696;2.114;2022-10-16T01:55:31;99462.10;;;15.61;100.00
12536;BME280;6334;48.696;2.114;2022-10-16T01:58:01;99459.27;;;15.89;100.00
12536;BME280;6334;48.696;2.114;2022-10-16T02:00:31;99445.06;;;15.47;100.00
12536;BME280;6334;48.696;2.114;2022-10-16T02:03:01;99463.23;;;15.57;100.00
12536;BME280;6334;48.696;2.114;2022-10-16T02:05:39;99432.52;;;15.44;100.00
12536;BME280;6334;48.696;2.114;2022-10-16T02:08:05;99475.63;;;15.47;100.00
12536;BME280;6334;48.696;2.114;2022-10-16T02:10:36;99469.45;;;15.54;100.00
12536;BME280;6334;48.696;2.114;2022-10-16T02:13:13;99467.86;;;15.43;100.00
12536;BME280;6334;48.696;2.114;2022-10-16T02:15:42;99470.49;;;15.41;100.00
12536;BME280;6334;48.696;2.114;2022-10-16T02:18:13;99471.53;;;15.52;100.00
12536;BME280;6334;48.696;2.114;2022-10-16T02:20:57;99471.16;;;15.38;100.00
12536;BME280;6334;48.696;2.114;2022-10-16T02:23:35;99483.35;;;15.43;100.00
12536;BME280;6334;48.696;2.114;2022-10-16T02:26:06;99476.19;;;15.39;100.00
12536;BME280;6334;48.696;2.114;2022-10-16T02:28:40;99440.41;;;15.20;100.00
12536;BME280;6334;48.696;2.114;2022-10-16T02:31:08;99477.25;;;15.37;100.00
12536;BME280;6334;48.696;2.114;2022-10-16T02:33:39;99425.03;;;14.88;100.00
12536;BME280;6334;48.696;2.114;2022-10-16T02:36:09;99491.33;;;15.35;100.00
12536;BME280;6334;48.696;2.114;2022-10-16T02:38:40;99490.92;;;15.50;100.00
12536;BME280;6334;48.696;2.114;2022-10-16T02:41:10;99490.59;;;15.34;100.00
12536;BME280;6334;48.696;2.114;2022-10-16T02:43:40;99500.95;;;15.26;100.00
12536;BME280;6334;48.696;2.114;2022-10-16T02:46:11;99460.81;;;15.30;100.00
12536;BME280;6334;48.696;2.114;2022-10-16T02:48:42;99488.91;;;15.45;100.00
12536;BME280;6334;48.696;2.114;2022-10-16T02:51:13;99496.67;;;15.42;100.00
12536;BME280;6334;48.696;2.114;2022-10-16T02:53:43;99498.55;;;15.36;100.00
12536;BME280;6334;48.696;2.114;2022-10-16T02:56:14;99505.81;;;15.21;100.00
12536;BME280;6334;48.696;2.114;2022-10-16T02:58:44;99487.39;;;15.23;100.00
12536;BME280;6334;48.696;2.114;2022-10-16T03:01:14;99502.84;;;15.22;100.00
12536;BME280;6334;48.696;2.114;2022-10-16T03:03:45;99487.75;;;15.32;100.00
12536;BME280;6334;48.696;2.114;2022-10-16T03:06:15;99499.98;;;15.55;100.00
12536;BME280;6334;48.696;2.114;2022-10-16T03:08:46;99498.11;;;15.47;100.00
12536;BME280;6334;48.696;2.114;2022-10-16T03:11:16;99509.02;;;15.36;100.00
12536;BME280;6334;48.696;2.114;2022-10-16T03:13:47;99503.17;;;15.45;100.00
12536;BME280;6334;48.696;2.114;2022-10-16T03:16:17;99509.66;;;15.32;100.00
12536;BME280;6334;48.696;2.114;2022-10-16T03:18:48;99510.59;;;15.61;100.00
12536;BME280;6334;48.696;2.114;2022-10-16T03:21:18;99494.94;;;15.63;100.00
12536;BME280;6334;48.696;2.114;2022-10-16T03:23:49;99448.55;;;15.21;100.00
12536;BME280;6334;48.696;2.114;2022-10-16T03:26:19;99484.41;;;15.42;100.00
12536;BME280;6334;48.696;2.114;2022-10-16T03:28:50;99475.64;;;15.39;100.00
12536;BME280;6334;48.696;2.114;2022-10-16T03:31:20;99474.80;;;15.41;100.00
12536;BME280;6334;48.696;2.114;2022-10-16T03:33:50;99476.83;;;15.46;100.00
12536;BME280;6334;48.696;2.114;2022-10-16T03:36:21;99472.05;;;15.36;100.00
12536;BME280;6334;48.696;2.114;2022-10-16T03:38:51;99472.08;;;15.42;100.00
12536;BME280;6334;48.696;2.114;2022-10-16T03:41:22;99477.25;;;15.39;100.00
12536;BME280;6334;48.696;2.114;2022-10-16T03:43:52;99471.91;;;15.43;100.00
12536;BME280;6334;48.696;2.114;2022-10-16T03:46:23;99479.78;;;15.52;100.00
12536;BME280;6334;48.696;2.114;2022-10-16T03:48:53;99480.56;;;15.52;100.00
12536;BME280;6334;48.696;2.114;2022-10-16T03:51:24;99480.17;;;15.56;100.00
12536;BME280;6334;48.696;2.114;2022-10-16T03:53:54;99490.00;;;15.31;100.00
12536;BME280;6334;48.696;2.114;2022-10-16T03:56:25;99505.48;;;15.43;100.00
12536;BME280;6334;48.696;2.114;2022-10-16T03:58:55;99499.09;;;15.59;100.00
12536;BME280;6334;48.696;2.114;2022-10-16T04:01:26;99489.14;;;15.95;100.00
12536;BME280;6334;48.696;2.114;2022-10-16T04:03:56;99491.80;;;15.85;100.00
12536;BME280;6334;48.696;2.114;2022-10-16T04:06:26;99494.33;;;15.37;100.00
12536;BME280;6334;48.696;2.114;2022-10-16T04:08:57;99488.95;;;15.59;100.00
12536;BME280;6334;48.696;2.114;2022-10-16T04:11:27;99457.00;;;15.25;100.00
12536;BME280;6334;48.696;2.114;2022-10-16T04:13:58;99508.69;;;15.38;100.00
12536;BME280;6334;48.696;2.114;2022-10-16T04:16:28;99508.13;;;15.47;100.00
12536;BME280;6334;48.696;2.114;2022-10-16T04:18:59;99504.09;;;15.30;100.00
12536;BME280;6334;48.696;2.114;2022-10-16T04:21:29;99510.77;;;15.42;100.00
12536;BME280;6334;48.696;2.114;2022-10-16T04:24:00;99512.52;;;15.42;100.00
12536;BME280;6334;48.696;2.114;2022-10-16T04:26:31;99495.50;;;15.56;100.00
12536;BME280;6334;48.696;2.114;2022-10-16T04:29:01;99516.75;;;15.40;100.00
12536;BME280;6334;48.696;2.114;2022-10-16T04:31:31;99515.34;;;15.36;100.00
12536;BME280;6334;48.696;2.114;2022-10-16T04:34:02;99511.30;;;15.46;100.00
12536;BME280;6334;48.696;2.114;2022-10-16T04:36:32;99513.52;;;15.49;100.00
12536;BME280;6334;48.696;2.114;2022-10-16T04:39:02;99518.86;;;15.45;100.00
12536;BME280;6334;48.696;2.114;2022-10-16T04:41:33;99524.75;;;15.34;100.00
12536;BME280;6334;48.696;2.114;2022-10-16T04:44:03;99508.70;;;15.23;100.00
12536;BME280;6334;48.696;2.114;2022-10-16T04:46:34;99533.61;;;15.54;100.00
12536;BME280;6334;48.696;2.114;2022-10-16T04:49:04;99535.72;;;15.75;100.00
12536;BME280;6334;48.696;2.114;2022-10-16T04:51:35;99548.73;;;15.38;100.00
12536;BME280;6334;48.696;2.114;2022-10-16T04:54:05;99550.27;;;15.46;100.00
12536;BME280;6334;48.696;2.114;2022-10-16T04:56:36;99556.91;;;15.26;100.00
12536;BME280;6334;48.696;2.114;2022-10-16T04:59:15;99556.22;;;15.38;100.00
12536;BME280;6334;48.696;2.114;2022-10-16T05:01:46;99554.32;;;15.65;100.00
12536;BME280;6334;48.696;2.114;2022-10-16T05:04:16;99560.49;;;15.88;100.00
12536;BME280;6334;48.696;2.114;2022-10-16T05:06:47;99570.62;;;15.41;100.00
12536;BME280;6334;48.696;2.114;2022-10-16T05:09:17;99564.52;;;15.27;100.00
12536;BME280;6334;48.696;2.114;2022-10-16T05:11:47;99577.84;;;15.51;100.00
12536;BME280;6334;48.696;2.114;2022-10-16T05:14:18;99586.78;;;15.72;100.00
12536;BME280;6334;48.696;2.114;2022-10-16T05:16:48;99550.42;;;15.22;100.00
12536;BME280;6334;48.696;2.114;2022-10-16T05:19:19;99592.28;;;15.44;100.00
12536;BME280;6334;48.696;2.114;2022-10-16T05:21:49;99592.80;;;15.42;100.00
12536;BME280;6334;48.696;2.114;2022-10-16T05:24:20;99589.54;;;15.56;100.00
12536;BME280;6334;48.696;2.114;2022-10-16T05:26:50;99584.88;;;15.75;100.00
12536;BME280;6334;48.696;2.114;2022-10-16T05:29:21;99548.72;;;15.53;100.00
12536;BME280;6334;48.696;2.114;2022-10-16T05:31:54;99582.64;;;15.95;100.00
12536;BME280;6334;48.696;2.114;2022-10-16T05:34:25;99595.59;;;15.71;100.00
12536;BME280;6334;48.696;2.114;2022-10-16T05:36:56;99591.57;;;15.67;100.00
12536;BME280;6334;48.696;2.114;2022-10-16T05:39:26;99592.16;;;15.74;100.00
12536;BME280;6334;48.696;2.114;2022-10-16T05:41:57;99587.44;;;15.72;100.00
12536;BME280;6334;48.696;2.114;2022-10-16T05:44:27;99587.84;;;15.53;100.00
12536;BME280;6334;48.696;2.114;2022-10-16T05:46:58;99596.56;;;15.82;100.00
12536;BME280;6334;48.696;2.114;2022-10-16T05:49:28;99600.02;;;15.83;100.00
12536;BME280;6334;48.696;2.114;2022-10-16T05:51:59;99601.45;;;15.73;100.00
12536;BME280;6334;48.696;2.114;2022-10-16T05:54:29;99600.27;;;15.63;100.00
12536;BME280;6334;48.696;2.114;2022-10-16T05:56:59;99601.39;;;15.57;100.00
12536;BME280;6334;48.696;2.114;2022-10-16T05:59:31;99601.44;;;15.53;100.00
12536;BME280;6334;48.696;2.114;2022-10-16T06:02:02;99599.28;;;15.38;100.00
12536;BME280;6334;48.696;2.114;2022-10-16T06:04:32;99547.97;;;15.00;100.00
12536;BME280;6334;48.696;2.114;2022-10-16T06:07:02;99590.98;;;15.33;100.00
12536;BME280;6334;48.696;2.114;2022-10-16T06:09:33;99591.11;;;15.44;100.00
12536;BME280;6334;48.696;2.114;2022-10-16T06:12:03;99589.30;;;15.55;100.00
12536;BME280;6334;48.696;2.114;2022-10-16T06:14:34;99579.22;;;15.79;100.00
12536;BME280;6334;48.696;2.114;2022-10-16T06:17:04;99584.23;;;15.59;100.00
12536;BME280;6334;48.696;2.114;2022-10-16T06:19:35;99592.39;;;15.34;100.00
12536;BME280;6334;48.696;2.114;2022-10-16T06:22:05;99596.27;;;15.78;100.00
12536;BME280;6334;48.696;2.114;2022-10-16T06:24:36;99600.13;;;15.70;100.00
12536;BME280;6334;48.696;2.114;2022-10-16T06:27:06;99600.66;;;15.84;100.00
12536;BME280;6334;48.696;2.114;2022-10-16T06:29:37;99605.05;;;15.55;100.00
12536;BME280;6334;48.696;2.114;2022-10-16T06:32:07;99604.45;;;15.77;100.00
12536;BME280;6334;48.696;2.114;2022-10-16T06:34:38;99603.94;;;15.73;100.00
12536;BME280;6334;48.696;2.114;2022-10-16T06:37:07;99610.09;;;15.81;100.00
12536;BME280;6334;48.696;2.114;2022-10-16T06:39:37;99539.83;;;15.27;100.00
12536;BME280;6334;48.696;2.114;2022-10-16T06:42:07;99607.92;;;15.68;100.00
12536;BME280;6334;48.696;2.114;2022-10-16T06:44:38;99606.17;;;15.65;100.00
12536;BME280;6334;48.696;2.114;2022-10-16T06:47:08;99613.54;;;15.68;100.00
12536;BME280;6334;48.696;2.114;2022-10-16T06:49:45;99619.27;;;15.80;100.00
12536;BME280;6334;48.696;2.114;2022-10-16T06:52:15;99623.99;;;15.65;100.00
12536;BME280;6334;48.696;2.114;2022-10-16T06:54:45;99625.65;;;15.68;100.00
12536;BME280;6334;48.696;2.114;2022-10-16T06:57:16;99632.66;;;15.73;100.00
12536;BME280;6334;48.696;2.114;2022-10-16T06:59:46;99636.07;;;15.74;100.00
12536;BME280;6334;48.696;2.114;2022-10-16T07:02:17;99641.55;;;15.56;100.00
12536;BME280;6334;48.696;2.114;2022-10-16T07:04:47;99649.61;;;15.63;100.00
12536;BME280;6334;48.696;2.114;2022-10-16T07:07:24;99646.48;;;15.80;100.00
12536;BME280;6334;48.696;2.114;2022-10-16T07:09:56;99597.46;;;15.51;100.00
12536;BME280;6334;48.696;2.114;2022-10-16T07:12:27;99643.11;;;15.81;100.00
12536;BME280;6334;48.696;2.114;2022-10-16T07:14:56;99651.20;;;15.99;100.00
12536;BME280;6334;48.696;2.114;2022-10-16T07:17:26;99648.80;;;16.03;100.00
12536;BME280;6334;48.696;2.114;2022-10-16T07:19:56;99614.02;;;15.33;100.00
12536;BME280;6334;48.696;2.114;2022-10-16T07:22:25;99661.11;;;16.05;100.00
12536;BME280;6334;48.696;2.114;2022-10-16T07:24:55;99668.89;;;16.27;100.00
12536;BME280;6334;48.696;2.114;2022-10-16T07:27:24;99672.66;;;16.26;100.00
12536;BME280;6334;48.696;2.114;2022-10-16T07:29:58;99675.05;;;16.31;100.00
12536;BME280;6334;48.696;2.114;2022-10-16T07:32:28;99663.27;;;16.26;100.00
12536;BME280;6334;48.696;2.114;2022-10-16T07:34:59;99678.18;;;16.39;100.00
12536;BME280;6334;48.696;2.114;2022-10-16T07:37:28;99687.14;;;16.20;100.00
12536;BME280;6334;48.696;2.114;2022-10-16T07:39:58;99688.74;;;16.63;100.00
12536;BME280;6334;48.696;2.114;2022-10-16T07:42:28;99695.61;;;16.32;100.00
12536;BME280;6334;48.696;2.114;2022-10-16T07:44:59;99683.59;;;16.45;100.00
12536;BME280;6334;48.696;2.114;2022-10-16T07:47:28;99691.94;;;16.39;100.00
12536;BME280;6334;48.696;2.114;2022-10-16T07:49:59;99690.59;;;16.55;100.00
12536;BME280;6334;48.696;2.114;2022-10-16T07:52:28;99699.26;;;16.46;100.00
12536;BME280;6334;48.696;2.114;2022-10-16T07:54:58;99712.34;;;16.65;100.00
12536;BME280;6334;48.696;2.114;2022-10-16T07:57:29;99719.19;;;16.36;100.00
12536;BME280;6334;48.696;2.114;2022-10-16T07:59:58;99722.16;;;16.09;100.00
12536;BME280;6334;48.696;2.114;2022-10-16T08:02:29;99720.66;;;15.98;100.00
12536;BME280;6334;48.696;2.114;2022-10-16T08:04:59;99715.38;;;16.25;100.00
12536;BME280;6334;48.696;2.114;2022-10-16T08:07:29;99690.46;;;16.42;100.00
12536;BME280;6334;48.696;2.114;2022-10-16T08:10:00;99709.30;;;16.39;100.00
12536;BME280;6334;48.696;2.114;2022-10-16T08:12:30;99709.39;;;16.84;100.00
12536;BME280;6334;48.696;2.114;2022-10-16T08:15:01;99719.37;;;16.84;100.00
12536;BME280;6334;48.696;2.114;2022-10-16T08:17:31;99700.70;;;16.45;100.00
12536;BME280;6334;48.696;2.114;2022-10-16T08:20:02;99726.41;;;16.90;100.00
12536;BME280;6334;48.696;2.114;2022-10-16T08:22:32;99735.92;;;16.77;100.00
12536;BME280;6334;48.696;2.114;2022-10-16T08:25:03;99739.64;;;16.56;100.00
12536;BME280;6334;48.696;2.114;2022-10-16T08:27:33;99733.58;;;16.82;100.00
12536;BME280;6334;48.696;2.114;2022-10-16T08:30:04;99736.42;;;16.55;100.00
12536;BME280;6334;48.696;2.114;2022-10-16T08:32:34;99736.41;;;16.85;100.00
12536;BME280;6334;48.696;2.114;2022-10-16T08:35:05;99735.98;;;16.87;100.00
12536;BME280;6334;48.696;2.114;2022-10-16T08:37:36;99716.48;;;16.82;100.00
12536;BME280;6334;48.696;2.114;2022-10-16T08:40:07;99733.16;;;16.74;100.00
12536;BME280;6334;48.696;2.114;2022-10-16T08:43:11;99736.37;;;16.95;100.00
12536;BME280;6334;48.696;2.114;2022-10-16T08:45:49;99738.97;;;16.67;100.00
12536;BME280;6334;48.696;2.114;2022-10-16T08:50:46;99730.89;;;17.05;100.00
12536;BME280;6334;48.696;2.114;2022-10-16T08:53:20;99728.07;;;17.08;100.00
12536;BME280;6334;48.696;2.114;2022-10-16T08:55:53;99727.66;;;17.14;100.00
12536;BME280;6334;48.696;2.114;2022-10-16T08:58:23;99741.03;;;17.14;100.00
12536;BME280;6334;48.696;2.114;2022-10-16T09:00:55;99752.11;;;17.13;100.00
12536;BME280;6334;48.696;2.114;2022-10-16T09:03:52;99748.47;;;17.29;100.00
12536;BME280;6334;48.696;2.114;2022-10-16T09:12:16;99743.45;;;16.85;100.00
12536;BME280;6334;48.696;2.114;2022-10-16T09:20:32;99735.88;;;17.60;100.00
12536;BME280;6334;48.696;2.114;2022-10-16T09:25:34;99741.11;;;17.59;100.00
12536;BME280;6334;48.696;2.114;2022-10-16T09:28:04;99745.94;;;17.64;100.00
12536;BME280;6334;48.696;2.114;2022-10-16T09:30:35;99735.92;;;17.15;100.00
12536;BME280;6334;48.696;2.114;2022-10-16T09:33:05;99756.38;;;17.55;100.00
12536;BME280;6334;48.696;2.114;2022-10-16T09:35:43;99752.43;;;17.21;100.00
12536;BME280;6334;48.696;2.114;2022-10-16T09:40:52;99745.86;;;17.58;100.00
12536;BME280;6334;48.696;2.114;2022-10-16T09:43:32;99746.22;;;17.88;100.00
12536;BME280;6334;48.696;2.114;2022-10-16T09:46:03;99749.75;;;17.90;100.00
12536;BME280;6334;48.696;2.114;2022-10-16T09:48:35;99746.85;;;17.95;100.00
12536;BME280;6334;48.696;2.114;2022-10-16T09:51:03;99743.59;;;17.74;100.00
12536;BME280;6334;48.696;2.114;2022-10-16T09:53:42;99740.88;;;18.12;100.00
12536;BME280;6334;48.696;2.114;2022-10-16T09:56:20;99728.77;;;17.71;100.00
12536;BME280;6334;48.696;2.114;2022-10-16T09:58:42;99726.11;;;17.96;100.00
12536;BME280;6334;48.696;2.114;2022-10-16T10:01:14;99710.94;;;17.98;100.00
12536;BME280;6334;48.696;2.114;2022-10-16T10:03:43;99715.93;;;18.22;100.00
12536;BME280;6334;48.696;2.114;2022-10-16T10:06:24;99712.18;;;18.00;100.00
12536;BME280;6334;48.696;2.114;2022-10-16T10:08:59;99712.09;;;18.46;100.00
12536;BME280;6334;48.696;2.114;2022-10-16T10:16:52;99718.84;;;17.94;100.00
12536;BME280;6334;48.696;2.114;2022-10-16T10:19:23;99720.12;;;17.95;100.00
12536;BME280;6334;48.696;2.114;2022-10-16T10:21:53;99723.20;;;17.97;100.00
12536;BME280;6334;48.696;2.114;2022-10-16T10:24:23;99722.47;;;18.17;100.00
12536;BME280;6334;48.696;2.114;2022-10-16T10:27:02;99723.45;;;18.17;100.00
12536;BME280;6334;48.696;2.114;2022-10-16T10:29:50;99724.22;;;18.14;100.00
12536;BME280;6334;48.696;2.114;2022-10-16T10:32:35;99725.99;;;18.32;100.00
12536;BME280;6334;48.696;2.114;2022-10-16T10:35:19;99725.52;;;17.98;100.00
12536;BME280;6334;48.696;2.114;2022-10-16T10:37:54;99722.89;;;18.11;100.00
12536;BME280;6334;48.696;2.114;2022-10-16T10:46:03;99726.48;;;18.00;100.00
12536;BME280;6334;48.696;2.114;2022-10-16T10:48:43;99728.84;;;18.15;100.00
12536;BME280;6334;48.696;2.114;2022-10-16T10:54:10;99724.88;;;18.07;100.00
12536;BME280;6334;48.696;2.114;2022-10-16T10:57:02;99724.75;;;18.10;100.00
12536;BME280;6334;48.696;2.114;2022-10-16T11:02:46;99717.50;;;18.02;100.00
12536;BME280;6334;48.696;2.114;2022-10-16T11:05:28;99709.18;;;17.96;100.00
12536;BME280;6334;48.696;2.114;2022-10-16T11:15:51;99703.92;;;18.25;100.00
12536;BME280;6334;48.696;2.114;2022-10-16T11:18:21;99663.31;;;17.87;100.00
12536;BME280;6334;48.696;2.114;2022-10-16T11:20:52;99702.23;;;17.69;100.00
12536;BME280;6334;48.696;2.114;2022-10-16T11:23:31;99704.72;;;18.13;100.00
12536;BME280;6334;48.696;2.114;2022-10-16T11:26:02;99704.63;;;18.12;100.00
12536;BME280;6334;48.696;2.114;2022-10-16T11:28:34;99658.66;;;17.98;100.00
12536;BME280;6334;48.696;2.114;2022-10-16T11:31:24;99693.02;;;18.38;100.00
12536;BME280;6334;48.696;2.114;2022-10-16T11:34:30;99692.54;;;17.82;100.00
12536;BME280;6334;48.696;2.114;2022-10-16T11:39:28;99680.37;;;18.23;100.00
12536;BME280;6334;48.696;2.114;2022-10-16T11:42:10;99675.91;;;18.31;100.00
12536;BME280;6334;48.696;2.114;2022-10-16T11:50:13;99661.32;;;18.37;100.00
12536;BME280;6334;48.696;2.114;2022-10-16T11:52:38;99659.33;;;18.33;100.00
12536;BME280;6334;48.696;2.114;2022-10-16T11:55:14;99662.99;;;18.58;100.00
12536;BME280;6334;48.696;2.114;2022-10-16T11:57:38;99655.47;;;18.48;100.00
12536;BME280;6334;48.696;2.114;2022-10-16T12:02:48;99649.80;;;18.40;100.00
12536;BME280;6334;48.696;2.114;2022-10-16T12:05:33;99650.31;;;18.45;100.00
12536;BME280;6334;48.696;2.114;2022-10-16T12:08:09;99644.13;;;18.55;100.00
12536;BME280;6334;48.696;2.114;2022-10-16T12:10:39;99646.56;;;18.58;100.00
12536;BME280;6334;48.696;2.114;2022-10-16T12:13:39;99645.55;;;18.53;100.00
12536;BME280;6334;48.696;2.114;2022-10-16T12:18:41;99649.10;;;18.30;100.00
12536;BME280;6334;48.696;2.114;2022-10-16T12:21:11;99645.73;;;18.63;100.00
12536;BME280;6334;48.696;2.114;2022-10-16T12:23:50;99645.05;;;18.65;100.00
12536;BME280;6334;48.696;2.114;2022-10-16T12:26:32;99646.93;;;18.72;100.00
12536;BME280;6334;48.696;2.114;2022-10-16T12:29:13;99644.00;;;18.44;100.00
12536;BME280;6334;48.696;2.114;2022-10-16T12:31:45;99648.30;;;18.78;100.00
12536;BME280;6334;48.696;2.114;2022-10-16T12:34:31;99646.87;;;18.78;100.00
12536;BME280;6334;48.696;2.114;2022-10-16T12:37:06;99641.01;;;18.69;100.00
12536;BME280;6334;48.696;2.114;2022-10-16T12:39:27;99633.31;;;18.83;100.00
12536;BME280;6334;48.696;2.114;2022-10-16T12:42:06;99626.53;;;18.76;100.00
12536;BME280;6334;48.696;2.114;2022-10-16T12:44:33;99632.06;;;18.85;100.00
12536;BME280;6334;48.696;2.114;2022-10-16T12:47:02;99628.84;;;18.81;100.00
12536;BME280;6334;48.696;2.114;2022-10-16T12:49:34;99625.06;;;18.84;100.00
12536;BME280;6334;48.696;2.114;2022-10-16T12:52:02;99619.45;;;18.99;100.00
12536;BME280;6334;48.696;2.114;2022-10-16T12:54:35;99622.78;;;19.11;100.00
12536;BME280;6334;48.696;2.114;2022-10-16T12:57:09;99622.53;;;19.20;100.00
12536;BME280;6334;48.696;2.114;2022-10-16T12:59:42;99620.64;;;19.22;100.00
12536;BME280;6334;48.696;2.114;2022-10-16T13:02:34;99621.70;;;19.12;100.00
12536;BME280;6334;48.696;2.114;2022-10-16T13:05:06;99620.52;;;18.96;100.00
12536;BME280;6334;48.696;2.114;2022-10-16T13:18:38;99594.88;;;19.13;100.00
12536;BME280;6334;48.696;2.114;2022-10-16T13:21:09;99590.16;;;19.02;100.00
12536;BME280;6334;48.696;2.114;2022-10-16T13:26:41;99596.73;;;19.19;100.00
12536;BME280;6334;48.696;2.114;2022-10-16T13:29:07;99597.61;;;19.28;100.00
12536;BME280;6334;48.696;2.114;2022-10-16T13:31:38;99593.28;;;19.33;100.00
12536;BME280;6334;48.696;2.114;2022-10-16T13:34:11;99588.37;;;19.60;100.00
12536;BME280;6334;48.696;2.114;2022-10-16T13:36:44;99589.80;;;19.59;100.00
12536;BME280;6334;48.696;2.114;2022-10-16T13:39:13;99590.45;;;19.53;100.00
12536;BME280;6334;48.696;2.114;2022-10-16T13:41:42;99588.69;;;19.80;100.00
12536;BME280;6334;48.696;2.114;2022-10-16T13:44:15;99595.44;;;19.71;100.00
12536;BME280;6334;48.696;2.114;2022-10-16T13:46:44;99601.06;;;19.44;100.00
12536;BME280;6334;48.696;2.114;2022-10-16T13:49:14;99591.92;;;19.50;100.00
12536;BME280;6334;48.696;2.114;2022-10-16T13:51:55;99590.64;;;19.54;100.00
12536;BME280;6334;48.696;2.114;2022-10-16T13:54:25;99594.85;;;19.49;100.00
12536;BME280;6334;48.696;2.114;2022-10-16T13:56:54;99595.42;;;19.52;100.00
12536;BME280;6334;48.696;2.114;2022-10-16T13:59:27;99599.80;;;19.62;100.00
12536;BME280;6334;48.696;2.114;2022-10-16T14:01:56;99595.58;;;19.64;100.00
12536;BME280;6334;48.696;2.114;2022-10-16T14:04:27;99592.28;;;19.80;100.00
12536;BME280;6334;48.696;2.114;2022-10-16T14:06:56;99595.02;;;19.64;100.00
12536;BME280;6334;48.696;2.114;2022-10-16T14:09:30;99597.27;;;19.56;100.00
12536;BME280;6334;48.696;2.114;2022-10-16T14:12:02;99595.14;;;19.61;100.00
12536;BME280;6334;48.696;2.114;2022-10-16T14:14:33;99601.78;;;19.82;100.00
12536;BME280;6334;48.696;2.114;2022-10-16T14:17:00;99594.05;;;19.90;100.00
12536;BME280;6334;48.696;2.114;2022-10-16T14:19:29;99599.36;;;19.42;100.00
12536;BME280;6334;48.696;2.114;2022-10-16T14:22:00;99595.47;;;19.63;100.00
12536;BME280;6334;48.696;2.114;2022-10-16T14:27:01;99599.92;;;19.77;100.00
12536;BME280;6334;48.696;2.114;2022-10-16T14:29:33;99592.16;;;19.83;100.00
12536;BME280;6334;48.696;2.114;2022-10-16T14:32:04;99598.14;;;19.79;100.00
12536;BME280;6334;48.696;2.114;2022-10-16T14:34:35;99600.09;;;19.81;100.00
12536;BME280;6334;48.696;2.114;2022-10-16T14:37:14;99602.54;;;19.64;100.00
12536;BME280;6334;48.696;2.114;2022-10-16T14:39:48;99601.02;;;19.58;100.00
12536;BME280;6334;48.696;2.114;2022-10-16T14:42:14;99599.27;;;19.71;100.00
12536;BME280;6334;48.696;2.114;2022-10-16T14:44:44;99598.83;;;19.52;100.00
12536;BME280;6334;48.696;2.114;2022-10-16T14:47:13;99597.41;;;19.72;100.00
12536;BME280;6334;48.696;2.114;2022-10-16T14:49:43;99598.25;;;19.81;100.00